Detall de PIREP

Printer-friendly versionPDF version

[2009/08/08 21:28:00]
Flight IATA:CT2112
Pilot Number:041
Company ICAO:CAT
Aircraft Type:AT72/F
PAX:48
Departing Airport: LEVC
Destination Airport: LEZL
Alternate Airport:LEMG
Online: VATSIM
Route:ASTRO1G B28 POBOS B28 XEBAR B28 YES R47 BLN1E
Flight Level:FL190
No Slew and time accel
No pause
Crash detect
Detect pilot in Cockpit between each 30 and 45 minutes
21:28 Zero fuel Weight: 39805 Lbs, Fuel Weight: 5599 Lbs
21:28 VATSIM:LEVC 082100Z 12005KT 9999 SCT025 SCT040 26/22 Q1014 NOSIG
21:28 VATSIM:LEZL 082100Z 22010KT CAVOK 22/15 Q1014 NOSIG
21:28 VOICE CATALONIAN
21:33 Parking Brakes off
21:44 Take-off
21:44 Take off Weight: 45297 Lbs
21:44 Wind: 133º @ 003 Knots Heading: 115º
21:44 POS N39º 29´ 20´´ W000º 28´ 50´´
21:44 Gear Up: 136 Knots
21:44 Flaps:1 at 136 Knots
21:45 Flaps:0 at 189 Knots
21:59 Wind:254º@006 Knots Heading: 232º Ground Speed: 251 Knots Altit
ude 9947 ft
22:07 TOC
22:07 Fuel Weight: 4687 Lb
22:14 Wind:247º@018 Knots Heading: 259º Ground Speed: 272 Knots Altitude 19041 ft
22:16 TOD
22:16 Fuel Weight: 4390 Lb
22:29 Wind:010º@006 Knots Heading: 248º Ground Speed: 250 Knots Altitude 5187 ft
22:44 Wind:309º@016 Knots Heading: 250º Ground Speed: 241 Knots Altitude 3008 ft
22:53 Flaps:1 at 187 Knots
22:54 Gear Down: 173 Knots
22:56 Flaps:2 at 142 Knots
22:57 TouchDown:Rate -143 ft/min Speed: 109 Knots
22:57 VATSIM:LEZL 082230Z 21009KT 180V240 CAVOK 21/15 Q1014 NOSIG
22:57 Land
22:57 Wind:214º@008 Knots
22:57 Heading: 267º
22:57 Flight Duration: 01:13
22:57 Landing Weight: 43359 Lbs
22:57 POS N37º 25´ 04´´ W005º 53´ 44´´
23:02 Parking brakes on
23:02 Block to Block Duration: 01:29
23:02 Final Fuel: 3518 Lbls
23:02 Spent Fuel: 2081 Lbls
23:02 Flight Length: 295 NM
23:02 TOD Land Length: 162 NM

Exportar CSV

Powered by Drupal - Modified by Danger4k